createdAt,value
2018-06-18T00:05:28.020Z,55.9
2018-06-18T00:15:42.175Z,55.3
2018-06-18T00:25:54.727Z,55.0
2018-06-18T00:46:25.036Z,54.3
2018-06-18T00:56:39.087Z,54.0
2018-06-18T01:06:51.508Z,53.9
2018-06-18T01:17:05.334Z,54.2
2018-06-18T01:27:19.694Z,54.0
2018-06-18T01:37:35.090Z,53.7
2018-06-18T01:47:49.369Z,54.4
2018-06-18T01:58:33.918Z,54.4
2018-06-18T02:08:58.302Z,54.7
2018-06-18T02:19:12.295Z,54.9
2018-06-18T02:29:24.313Z,56.1
2018-06-18T02:39:37.759Z,56.3
2018-06-18T02:49:51.974Z,55.7
2018-06-18T03:00:05.240Z,56.0
2018-06-18T03:10:19.191Z,57.5
2018-06-18T03:20:32.774Z,58.2
2018-06-18T03:30:49.633Z,58.0
2018-06-18T03:41:03.618Z,57.6
2018-06-18T03:51:50.087Z,59.5
2018-06-18T04:02:04.621Z,58.1
2018-06-18T04:12:16.502Z,59.1
2018-06-18T04:23:01.323Z,61.5
2018-06-18T04:33:15.544Z,61.5
2018-06-18T04:43:30.159Z,61.9
2018-06-18T04:54:14.458Z,61.3
2018-06-18T05:04:27.786Z,62.1
2018-06-18T05:14:41.254Z,64.4
2018-06-18T05:24:55.712Z,63.4
2018-06-18T05:35:09.504Z,62.4
2018-06-18T05:45:23.749Z,63.1
2018-06-18T05:55:38.982Z,64.6
2018-06-18T06:05:53.288Z,64.8
2018-06-18T06:16:07.426Z,65.8
2018-06-18T06:26:22.406Z,64.7
2018-06-18T06:36:37.937Z,65.1
2018-06-18T06:46:52.430Z,65.8
2018-06-18T06:57:06.280Z,65.6
2018-06-18T07:07:20.406Z,65.6
2018-06-18T07:17:34.625Z,66.0
2018-06-18T07:27:50.281Z,65.4
2018-06-18T07:38:04.134Z,66.4
2018-06-18T07:48:48.140Z,66.2
2018-06-18T08:00:13.204Z,65.7
2018-06-18T08:10:28.562Z,64.4
2018-06-18T08:22:16.280Z,63.3
2018-06-18T08:32:31.672Z,62.3
2018-06-18T08:43:50.787Z,61.3
2018-06-18T08:56:31.095Z,61.3
2018-06-18T09:09:45.323Z,62.3
2018-06-18T09:20:38.368Z,57.7
2018-06-18T09:30:58.083Z,56.4
2018-06-18T09:41:25.771Z,56.6
2018-06-18T09:52:09.364Z,57.1
2018-06-18T10:02:51.784Z,57.5
2018-06-18T10:14:37.488Z,56.7
2018-06-18T11:03:11.868Z,53.5
2018-06-18T11:13:57.940Z,52.8
2018-06-18T11:40:14.878Z,53.4
2018-06-18T12:17:10.258Z,53.9
2018-06-18T13:14:56.868Z,55.8
2018-06-18T14:54:05.039Z,58.7
2018-06-18T15:10:30.659Z,58.4
2018-06-18T16:24:01.856Z,58.9
2018-06-18T17:48:28.480Z,59.2
2018-06-18T19:53:14.206Z,59.1
2018-06-18T20:20:07.409Z,59.3
2018-06-18T20:49:42.680Z,59.3
2018-06-18T20:59:56.590Z,59.0
2018-06-18T21:11:21.903Z,59.2
2018-06-18T21:21:36.479Z,59.4
2018-06-18T22:18:26.440Z,59.7
2018-06-18T22:28:38.074Z,59.4
2018-06-18T22:38:53.084Z,59.8
2018-06-18T23:23:07.686Z,59.9
2018-06-18T23:36:44.984Z,59.9
2018-06-18T23:49:42.479Z,60.7
